createdAt,value
2018-12-26T00:00:36.858Z,5.56
2018-12-26T00:03:08.818Z,5.62
2018-12-26T00:05:43.885Z,5.63
2018-12-26T00:08:15.969Z,5.62
2018-12-26T00:10:47.877Z,5.55
2018-12-26T00:13:19.738Z,5.62
2018-12-26T00:15:51.648Z,5.70
2018-12-26T00:18:23.796Z,5.65
2018-12-26T00:20:55.791Z,5.64
2018-12-26T00:23:27.619Z,5.71
2018-12-26T00:26:03.004Z,5.68
2018-12-26T00:28:34.998Z,5.63
2018-12-26T00:31:09.235Z,5.47
2018-12-26T00:33:41.201Z,5.46
2018-12-26T00:36:13.530Z,5.49
2018-12-26T00:38:45.428Z,5.38
2018-12-26T00:41:17.406Z,5.18
2018-12-26T00:43:50.234Z,5.24
2018-12-26T00:46:22.175Z,5.20
2018-12-26T00:48:56.131Z,5.21
2018-12-26T00:51:28.115Z,5.20
2018-12-26T00:54:00.016Z,5.34
2018-12-26T00:56:32.316Z,5.36
2018-12-26T00:59:04.346Z,5.34
2018-12-26T01:01:36.788Z,5.38
2018-12-26T01:04:08.723Z,5.36
2018-12-26T01:06:41.030Z,5.29
2018-12-26T01:09:13.572Z,5.28
2018-12-26T01:11:45.467Z,5.31
2018-12-26T01:14:17.425Z,5.27
2018-12-26T01:16:52.262Z,5.32
2018-12-26T01:19:24.166Z,5.32
2018-12-26T01:21:56.004Z,5.29
2018-12-26T01:24:28.207Z,5.37
2018-12-26T01:27:00.068Z,5.42
2018-12-26T01:29:31.910Z,5.38
2018-12-26T01:32:03.892Z,5.34
2018-12-26T01:34:36.267Z,5.34
2018-12-26T01:37:08.522Z,5.13
2018-12-26T01:39:40.428Z,5.06
2018-12-26T01:42:12.314Z,4.95
2018-12-26T01:44:45.779Z,4.93
2018-12-26T01:47:18.276Z,4.98
2018-12-26T01:49:55.081Z,5.11
2018-12-26T01:52:27.522Z,5.17
2018-12-26T01:55:00.849Z,5.26
2018-12-26T01:57:33.546Z,5.32
2018-12-26T02:00:10.316Z,5.18
2018-12-26T02:02:43.651Z,5.16
2018-12-26T02:05:35.551Z,5.15
2018-12-26T02:08:08.604Z,5.16
2018-12-26T02:10:44.997Z,5.07
2018-12-26T02:13:17.471Z,4.99
2018-12-26T02:15:49.841Z,4.95
2018-12-26T02:18:24.258Z,4.84
2018-12-26T02:20:56.628Z,4.67
2018-12-26T02:23:29.028Z,4.64
2018-12-26T02:26:01.024Z,4.74
2018-12-26T02:28:33.188Z,4.74
2018-12-26T02:31:08.928Z,4.81
2018-12-26T02:33:41.061Z,4.89
2018-12-26T02:36:13.290Z,4.96
2018-12-26T02:38:45.452Z,4.91
2018-12-26T02:41:18.822Z,4.88
2018-12-26T02:43:50.892Z,4.86
2018-12-26T02:46:22.919Z,4.69
2018-12-26T02:48:54.895Z,4.69
2018-12-26T02:51:26.822Z,4.66
2018-12-26T02:54:01.166Z,4.64
2018-12-26T02:56:33.052Z,4.53
2018-12-26T02:59:04.951Z,4.51
2018-12-26T03:01:36.831Z,4.59
2018-12-26T03:04:08.722Z,4.66
2018-12-26T03:06:40.678Z,4.63
2018-12-26T03:09:12.561Z,4.55
2018-12-26T03:11:44.506Z,4.50
2018-12-26T03:14:19.248Z,4.32
2018-12-26T03:16:51.132Z,4.26
2018-12-26T03:19:24.731Z,4.27
2018-12-26T03:21:56.615Z,4.21
2018-12-26T03:24:28.575Z,4.17
2018-12-26T03:27:00.452Z,4.12
2018-12-26T03:29:32.349Z,4.20
2018-12-26T03:32:04.250Z,4.23
2018-12-26T03:34:36.131Z,4.29
2018-12-26T03:37:08.056Z,4.27
2018-12-26T03:39:40.038Z,4.31
2018-12-26T03:42:12.350Z,4.31
2018-12-26T03:44:45.227Z,4.32
2018-12-26T03:47:17.488Z,4.43
2018-12-26T03:49:49.525Z,4.51
2018-12-26T03:52:22.741Z,4.59
2018-12-26T03:54:54.642Z,4.57
2018-12-26T03:57:29.523Z,4.65
2018-12-26T04:00:06.802Z,4.66
2018-12-26T04:02:42.169Z,4.62
2018-12-26T04:05:14.064Z,4.75
2018-12-26T04:07:46.070Z,4.67
2018-12-26T04:10:18.099Z,4.43
2018-12-26T04:12:52.042Z,4.20
2018-12-26T04:15:24.029Z,4.14
2018-12-26T04:17:56.028Z,4.12
2018-12-26T04:20:28.063Z,4.10
2018-12-26T04:23:00.688Z,4.18
2018-12-26T04:25:34.633Z,4.20
2018-12-26T04:28:06.600Z,4.24
2018-12-26T04:30:40.524Z,4.28
2018-12-26T04:33:12.957Z,4.36
2018-12-26T04:35:44.789Z,4.45
2018-12-26T04:38:18.199Z,4.47
2018-12-26T04:40:50.059Z,4.54
2018-12-26T04:43:21.950Z,4.56
2018-12-26T04:45:55.911Z,4.51
2018-12-26T04:48:37.029Z,4.33
2018-12-26T04:51:09.542Z,4.28
2018-12-26T04:53:41.399Z,4.30
2018-12-26T04:56:15.007Z,4.31
2018-12-26T04:58:47.058Z,4.33
2018-12-26T05:01:20.768Z,4.34
2018-12-26T05:03:52.756Z,4.42
2018-12-26T05:06:24.642Z,4.38
2018-12-26T05:08:56.531Z,4.35
2018-12-26T05:11:28.546Z,4.38
2018-12-26T05:14:02.217Z,4.24
2018-12-26T05:16:34.040Z,4.13
2018-12-26T05:19:06.074Z,4.18
2018-12-26T05:21:37.914Z,4.14
2018-12-26T05:24:11.436Z,4.15
2018-12-26T05:26:43.602Z,4.18
2018-12-26T05:29:15.560Z,4.21
2018-12-26T05:31:49.447Z,4.26
2018-12-26T05:34:21.760Z,4.30
2018-12-26T05:36:53.639Z,4.16
2018-12-26T05:39:26.998Z,4.16
2018-12-26T05:41:58.908Z,4.16
2018-12-26T05:44:30.796Z,4.02
2018-12-26T05:47:02.675Z,4.03
2018-12-26T05:49:34.564Z,4.09
2018-12-26T05:52:08.835Z,4.11
2018-12-26T05:54:40.802Z,4.12
2018-12-26T05:57:12.736Z,4.05
2018-12-26T05:59:45.220Z,4.07
2018-12-26T06:02:17.061Z,4.08
2018-12-26T06:04:49.259Z,4.21
2018-12-26T06:07:21.153Z,4.24
2018-12-26T06:09:53.206Z,4.20
2018-12-26T06:12:25.086Z,4.22
2018-12-26T06:14:56.927Z,4.19
2018-12-26T06:17:28.806Z,4.17
2018-12-26T06:20:00.856Z,4.02
2018-12-26T06:22:34.022Z,3.93
2018-12-26T06:25:06.500Z,3.94
2018-12-26T06:27:38.382Z,3.93
2018-12-26T06:30:10.259Z,3.93
2018-12-26T06:32:42.142Z,3.92
2018-12-26T06:35:13.969Z,3.99
2018-12-26T06:37:45.872Z,3.98
2018-12-26T06:40:20.241Z,4.07
2018-12-26T06:42:52.276Z,4.07
2018-12-26T06:45:25.734Z,4.07
2018-12-26T06:47:57.597Z,4.16
2018-12-26T06:50:29.623Z,4.18
2018-12-26T06:53:01.812Z,4.18
2018-12-26T06:55:35.085Z,4.20
2018-12-26T06:58:06.979Z,4.21
2018-12-26T07:00:38.905Z,4.24
2018-12-26T07:03:10.745Z,4.25
2018-12-26T07:05:43.034Z,4.33
2018-12-26T07:08:14.926Z,4.34
2018-12-26T07:10:46.807Z,4.27
2018-12-26T07:13:18.697Z,4.29
2018-12-26T07:15:50.943Z,4.21
2018-12-26T07:18:22.856Z,4.07
2018-12-26T07:20:54.766Z,3.97
2018-12-26T07:23:26.657Z,4.02
2018-12-26T07:25:58.542Z,4.04
2018-12-26T07:28:30.405Z,4.05
2018-12-26T07:31:02.302Z,3.93
2018-12-26T07:33:34.323Z,4.05
2018-12-26T07:36:06.304Z,4.12
2018-12-26T07:38:38.192Z,4.13
2018-12-26T07:41:10.637Z,4.15
2018-12-26T07:43:42.527Z,4.20
2018-12-26T07:46:18.409Z,4.29
2018-12-26T07:48:50.471Z,4.29
2018-12-26T07:51:22.310Z,4.25
2018-12-26T07:53:54.273Z,4.20
2018-12-26T07:56:26.099Z,4.13
2018-12-26T07:58:57.995Z,4.05
2018-12-26T08:01:29.887Z,4.08
2018-12-26T08:04:01.727Z,4.06
2018-12-26T08:06:35.237Z,4.09
2018-12-26T08:09:07.918Z,4.07
2018-12-26T08:11:40.104Z,4.15
2018-12-26T08:14:12.030Z,4.20
2018-12-26T08:16:44.017Z,4.19
2018-12-26T08:19:15.877Z,4.26
2018-12-26T08:21:48.381Z,4.34
2018-12-26T08:24:20.298Z,4.40
2018-12-26T08:26:56.608Z,4.45
2018-12-26T08:29:28.922Z,4.55
2018-12-26T08:32:00.791Z,4.61
2018-12-26T08:34:32.641Z,4.59
2018-12-26T08:37:04.550Z,4.60
2018-12-26T08:39:36.426Z,4.72
2018-12-26T08:42:08.280Z,4.83
2018-12-26T08:44:40.243Z,4.97
2018-12-26T08:47:14.555Z,5.15
2018-12-26T08:49:47.343Z,5.34
2018-12-26T08:52:21.748Z,5.59
2018-12-26T08:54:54.373Z,5.81
2018-12-26T08:57:26.322Z,5.94
2018-12-26T08:59:58.215Z,6.24
2018-12-26T09:02:33.120Z,6.56
2018-12-26T09:05:27.761Z,6.06
2018-12-26T09:08:09.360Z,5.92
2018-12-26T09:10:44.789Z,6.06
2018-12-26T09:13:16.829Z,6.05
2018-12-26T09:15:51.362Z,6.04
2018-12-26T09:18:24.084Z,6.11
2018-12-26T09:20:55.972Z,6.28
2018-12-26T09:23:28.592Z,6.40
2018-12-26T09:26:03.220Z,6.55
2018-12-26T09:28:43.601Z,6.67
2018-12-26T09:31:08.996Z,7.16
2018-12-26T09:33:43.244Z,7.60
2018-12-26T09:36:15.112Z,8.08
2018-12-26T09:38:47.045Z,8.46
2018-12-26T09:41:18.891Z,10.29
2018-12-26T09:43:50.857Z,11.47
2018-12-26T09:46:24.286Z,12.27
2018-12-26T09:48:56.772Z,14.33
2018-12-26T09:51:28.681Z,13.61
2018-12-26T09:54:00.529Z,14.19
2018-12-26T09:56:34.679Z,14.49
2018-12-26T09:59:09.367Z,15.64
2018-12-26T10:01:41.288Z,15.87
2018-12-26T10:04:14.384Z,15.08
2018-12-26T10:06:46.293Z,14.42
2018-12-26T10:09:18.231Z,15.09
2018-12-26T10:11:50.164Z,15.12
2018-12-26T10:14:22.047Z,16.76
2018-12-26T10:16:54.289Z,19.37
2018-12-26T10:19:26.206Z,22.08
2018-12-26T10:21:58.136Z,23.01
2018-12-26T10:24:30.406Z,24.16
2018-12-26T10:27:02.575Z,25.27
2018-12-26T10:29:34.492Z,26.24
2018-12-26T10:32:09.197Z,26.57
2018-12-26T10:34:41.335Z,25.43
2018-12-26T10:37:15.744Z,24.20
2018-12-26T10:39:47.908Z,25.37
2018-12-26T10:42:20.043Z,25.30
2018-12-26T10:44:52.998Z,25.11
2018-12-26T10:47:27.635Z,24.74
2018-12-26T10:49:59.719Z,25.48
2018-12-26T10:52:31.886Z,24.38
2018-12-26T10:55:08.392Z,24.63
2018-12-26T10:57:40.420Z,25.00
2018-12-26T11:00:13.774Z,25.08
2018-12-26T11:02:45.790Z,24.97
2018-12-26T11:05:17.744Z,25.77
2018-12-26T11:07:49.731Z,25.61
2018-12-26T11:10:21.745Z,26.91
2018-12-26T11:12:53.726Z,26.51
2018-12-26T11:15:25.583Z,28.35
2018-12-26T11:17:58.716Z,28.26
2018-12-26T11:20:30.595Z,26.91
2018-12-26T11:23:02.522Z,27.00
2018-12-26T11:25:34.445Z,28.08
2018-12-26T11:28:06.339Z,28.17
2018-12-26T11:30:38.239Z,27.91
2018-12-26T11:33:10.102Z,28.48
2018-12-26T11:35:42.053Z,26.61
2018-12-26T11:38:13.966Z,26.74
2018-12-26T11:40:46.261Z,25.16
2018-12-26T11:43:18.163Z,26.35
2018-12-26T11:45:50.216Z,26.36
2018-12-26T11:48:22.122Z,25.06
2018-12-26T11:50:54.505Z,23.83
2018-12-26T11:53:26.422Z,23.83
2018-12-26T11:55:58.420Z,24.23
2018-12-26T11:58:30.393Z,23.82
2018-12-26T12:01:02.241Z,22.92
2018-12-26T12:03:34.157Z,22.36
2018-12-26T12:06:06.112Z,22.74
2018-12-26T12:08:38.088Z,21.95
2018-12-26T12:11:09.941Z,24.19
2018-12-26T12:13:42.084Z,23.87
2018-12-26T12:16:15.595Z,24.66
2018-12-26T12:18:47.853Z,25.28
2018-12-26T12:21:19.716Z,25.55
2018-12-26T12:23:51.625Z,26.20
2018-12-26T12:26:23.482Z,27.59
2018-12-26T12:28:55.385Z,26.44
2018-12-26T12:31:28.755Z,26.96
2018-12-26T12:34:00.988Z,26.44
2018-12-26T12:36:32.861Z,24.87
2018-12-26T12:39:06.154Z,24.40
2018-12-26T12:41:38.032Z,25.68
2018-12-26T12:44:10.038Z,26.79
2018-12-26T12:46:41.915Z,27.26
2018-12-26T12:51:21.486Z,25.92
2018-12-26T12:53:54.951Z,24.68
2018-12-26T12:56:26.939Z,26.01
2018-12-26T12:58:59.572Z,25.71
2018-12-26T13:01:31.477Z,25.84
2018-12-26T13:04:03.420Z,24.90
2018-12-26T13:06:35.331Z,24.65
2018-12-26T13:09:08.613Z,24.53
2018-12-26T13:11:40.509Z,25.48
2018-12-26T13:14:19.333Z,24.58
2018-12-26T13:16:53.979Z,24.77
2018-12-26T13:19:25.942Z,24.41
2018-12-26T13:21:57.859Z,24.35
2018-12-26T13:24:29.785Z,21.96
2018-12-26T13:27:04.103Z,20.71
2018-12-26T13:29:36.062Z,18.14
2018-12-26T13:32:08.094Z,17.63
2018-12-26T13:34:40.067Z,17.54
2018-12-26T13:37:11.917Z,17.05
2018-12-26T13:39:43.855Z,16.41
2018-12-26T13:42:15.711Z,16.58
2018-12-26T13:44:47.602Z,16.15
2018-12-26T13:47:19.494Z,16.26
2018-12-26T13:49:51.398Z,16.11
2018-12-26T13:52:24.969Z,15.91
2018-12-26T13:54:56.824Z,15.86
2018-12-26T13:57:29.078Z,15.85
2018-12-26T14:00:02.514Z,15.91
2018-12-26T14:02:35.252Z,16.03
2018-12-26T14:05:07.662Z,15.82
2018-12-26T14:07:39.660Z,15.27
2018-12-26T14:10:11.897Z,15.48
2018-12-26T14:12:43.986Z,15.67
2018-12-26T14:15:15.928Z,15.67
2018-12-26T14:17:48.573Z,15.61
2018-12-26T14:20:20.483Z,15.57
2018-12-26T14:22:52.363Z,15.47
2018-12-26T14:25:24.945Z,15.52
2018-12-26T14:27:58.479Z,15.47
2018-12-26T14:30:30.329Z,15.42
2018-12-26T14:33:02.258Z,15.47
2018-12-26T14:35:34.229Z,15.44
2018-12-26T14:38:06.085Z,15.36
2018-12-26T14:40:38.153Z,15.24
2018-12-26T14:43:10.252Z,15.20
2018-12-26T14:45:42.165Z,14.95
2018-12-26T14:48:15.638Z,15.01
2018-12-26T14:50:47.618Z,14.86
2018-12-26T14:53:19.522Z,14.97
2018-12-26T14:55:51.486Z,14.87
2018-12-26T14:58:23.337Z,14.83
2018-12-26T15:00:55.261Z,14.82
2018-12-26T15:03:27.600Z,14.79
2018-12-26T15:06:00.359Z,14.76
2018-12-26T15:08:33.988Z,14.54
2018-12-26T15:11:08.260Z,14.68
2018-12-26T15:13:42.928Z,14.67
2018-12-26T15:16:15.467Z,14.58
2018-12-26T15:18:47.419Z,14.56
2018-12-26T15:21:19.391Z,14.39
2018-12-26T15:23:51.289Z,14.49
2018-12-26T15:26:23.163Z,14.51
2018-12-26T15:28:56.391Z,14.30
2018-12-26T15:31:32.102Z,14.25
2018-12-26T15:34:04.067Z,14.42
2018-12-26T15:36:37.156Z,14.28
2018-12-26T15:39:12.669Z,14.19
2018-12-26T15:41:45.908Z,14.31
2018-12-26T15:44:17.854Z,14.35
2018-12-26T15:46:50.194Z,14.25
2018-12-26T15:49:22.841Z,14.22
2018-12-26T15:51:54.770Z,14.13
2018-12-26T15:54:26.783Z,14.12
2018-12-26T15:56:58.790Z,14.02
2018-12-26T15:59:36.176Z,13.93
2018-12-26T16:02:08.670Z,13.87
2018-12-26T16:04:40.532Z,13.78
2018-12-26T16:07:12.416Z,13.68
2018-12-26T16:09:45.649Z,13.70
2018-12-26T16:12:19.040Z,13.51
2018-12-26T16:14:50.930Z,13.47
2018-12-26T16:17:22.858Z,13.37
2018-12-26T16:19:54.764Z,13.31
2018-12-26T16:22:26.668Z,13.17
2018-12-26T16:24:58.605Z,13.11
2018-12-26T16:27:31.176Z,12.88
2018-12-26T16:30:03.407Z,12.74
2018-12-26T16:32:35.401Z,12.68
2018-12-26T16:35:09.003Z,12.53
2018-12-26T16:37:40.876Z,12.47
2018-12-26T16:40:12.784Z,12.31
2018-12-26T16:42:44.663Z,12.13
2018-12-26T16:45:16.709Z,11.98
2018-12-26T16:47:50.796Z,11.93
2018-12-26T16:50:27.132Z,11.86
2018-12-26T16:52:59.449Z,11.79
2018-12-26T16:55:31.360Z,11.75
2018-12-26T16:58:06.233Z,11.72
2018-12-26T17:00:38.117Z,11.64
2018-12-26T17:03:10.321Z,11.57
2018-12-26T17:05:42.241Z,11.57
2018-12-26T17:08:14.152Z,11.47
2018-12-26T17:10:47.716Z,11.63
2018-12-26T17:13:19.552Z,11.50
2018-12-26T17:15:51.501Z,11.52
2018-12-26T17:18:23.443Z,11.38
2018-12-26T17:20:55.414Z,11.27
2018-12-26T17:23:27.313Z,11.21
2018-12-26T17:25:59.202Z,11.14
2018-12-26T17:28:31.110Z,11.02
2018-12-26T17:31:04.275Z,10.98
2018-12-26T17:33:36.400Z,10.78
2018-12-26T17:36:08.355Z,10.77
2018-12-26T17:38:40.215Z,10.62
2018-12-26T17:41:13.927Z,10.50
2018-12-26T17:43:45.805Z,10.42
2018-12-26T17:46:17.708Z,10.35
2018-12-26T17:48:49.584Z,10.32
2018-12-26T17:51:23.640Z,10.24
2018-12-26T17:54:47.127Z,10.22
2018-12-26T17:57:32.503Z,10.10
2018-12-26T18:00:54.821Z,10.01
2018-12-26T18:03:26.715Z,9.88
2018-12-26T18:05:58.661Z,9.74
2018-12-26T18:08:30.531Z,9.73
2018-12-26T18:11:02.496Z,9.62
2018-12-26T18:13:34.404Z,9.57
2018-12-26T18:16:06.323Z,9.49
2018-12-26T18:18:38.199Z,9.47
2018-12-26T18:21:10.116Z,9.37
2018-12-26T18:23:42.017Z,9.35
2018-12-26T18:26:14.109Z,9.25
2018-12-26T18:28:46.246Z,9.21
2018-12-26T18:31:22.044Z,9.10
2018-12-26T18:33:51.816Z,9.08
2018-12-26T18:36:23.675Z,9.03
2018-12-26T18:38:55.630Z,8.91
2018-12-26T18:41:27.520Z,8.76
2018-12-26T18:43:59.529Z,8.83
2018-12-26T18:46:31.473Z,8.83
2018-12-26T18:49:03.432Z,8.91
2018-12-26T18:51:35.497Z,8.91
2018-12-26T18:54:07.777Z,8.87
2018-12-26T18:56:40.074Z,8.80
2018-12-26T18:59:12.127Z,8.76
2018-12-26T19:01:44.136Z,8.71
2018-12-26T19:04:16.134Z,8.66
2018-12-26T19:06:48.160Z,8.65
2018-12-26T19:09:20.243Z,8.70
2018-12-26T19:11:52.151Z,8.78
2018-12-26T19:14:24.167Z,8.81
2018-12-26T19:16:56.104Z,8.83
2018-12-26T19:19:28.062Z,8.69
2018-12-26T19:21:59.948Z,8.73
2018-12-26T19:24:33.473Z,8.68
2018-12-26T19:27:05.427Z,8.70
2018-12-26T19:29:37.374Z,8.66
2018-12-26T19:32:09.339Z,8.56
2018-12-26T19:34:41.624Z,8.56
2018-12-26T19:37:13.792Z,8.54
2018-12-26T19:39:45.708Z,8.55
2018-12-26T19:42:20.608Z,8.54
2018-12-26T19:44:52.913Z,8.55
2018-12-26T19:47:24.922Z,8.56
2018-12-26T19:50:04.563Z,8.53
2018-12-26T19:52:30.583Z,8.46
2018-12-26T19:55:02.963Z,8.49
2018-12-26T19:57:34.858Z,8.49
2018-12-26T20:00:07.525Z,8.51
2018-12-26T20:02:41.039Z,8.40
2018-12-26T20:05:12.987Z,8.35
2018-12-26T20:07:45.116Z,8.22
2018-12-26T20:10:22.946Z,8.14
2018-12-26T20:12:56.723Z,8.11
2018-12-26T20:15:29.142Z,7.96
2018-12-26T20:18:01.100Z,7.95
2018-12-26T20:20:33.166Z,7.87
2018-12-26T20:23:05.130Z,7.79
2018-12-26T20:25:37.148Z,7.76
2018-12-26T20:28:10.174Z,7.77
2018-12-26T20:30:42.103Z,7.73
2018-12-26T20:33:14.367Z,7.68
2018-12-26T20:35:46.339Z,7.66
2018-12-26T20:38:18.396Z,7.64
2018-12-26T20:40:53.308Z,7.52
2018-12-26T20:43:25.433Z,7.37
2018-12-26T20:45:58.481Z,7.30
2018-12-26T20:48:30.409Z,7.32
2018-12-26T20:51:02.362Z,7.37
2018-12-26T20:53:34.368Z,7.43
2018-12-26T20:56:06.307Z,7.56
2018-12-26T20:58:38.425Z,7.60
2018-12-26T21:01:11.200Z,7.73
2018-12-26T21:03:43.176Z,7.87
2018-12-26T21:06:15.233Z,7.96
2018-12-26T21:08:48.809Z,7.96
2018-12-26T21:11:21.363Z,7.97
2018-12-26T21:13:53.760Z,8.02
2018-12-26T21:16:25.732Z,7.91
2018-12-26T21:18:57.640Z,7.97
2018-12-26T21:21:29.777Z,8.02
2018-12-26T21:24:01.868Z,7.99
2018-12-26T21:26:34.709Z,7.96
2018-12-26T21:29:06.679Z,7.96
2018-12-26T21:31:38.794Z,7.88
2018-12-26T21:34:10.843Z,7.89
2018-12-26T21:36:42.762Z,7.78
2018-12-26T21:39:14.818Z,7.88
2018-12-26T21:41:46.810Z,8.02
2018-12-26T21:44:18.778Z,7.89
2018-12-26T21:46:50.718Z,7.93
2018-12-26T21:49:23.132Z,8.11
2018-12-26T21:51:55.107Z,8.03
2018-12-26T21:54:32.814Z,8.09
2018-12-26T21:57:07.944Z,8.07
2018-12-26T21:59:40.074Z,8.02
2018-12-26T22:02:12.040Z,7.86
2018-12-26T22:04:43.953Z,7.76
2018-12-26T22:07:16.237Z,7.56
2018-12-26T22:09:49.171Z,7.44
2018-12-26T22:12:21.395Z,7.39
2018-12-26T22:14:53.311Z,7.47
2018-12-26T22:17:25.220Z,7.47
2018-12-26T22:19:57.112Z,7.52
2018-12-26T22:22:30.678Z,7.61
2018-12-26T22:25:02.673Z,7.61
2018-12-26T22:27:37.906Z,7.48
2018-12-26T22:30:11.497Z,7.45
2018-12-26T22:32:44.865Z,7.42
2018-12-26T22:35:16.889Z,7.40
2018-12-26T22:37:51.995Z,7.49
2018-12-26T22:40:26.278Z,7.51
2018-12-26T22:42:59.209Z,7.64
2018-12-26T22:45:31.652Z,7.79
2018-12-26T22:48:03.494Z,7.86
2018-12-26T22:50:35.989Z,7.82
2018-12-26T22:53:08.036Z,7.85
2018-12-26T22:55:39.993Z,7.96
2018-12-26T22:58:12.175Z,7.85
2018-12-26T23:00:47.241Z,7.83
2018-12-26T23:03:19.151Z,7.77
2018-12-26T23:05:51.351Z,7.68
2018-12-26T23:08:23.234Z,7.55
2018-12-26T23:10:56.287Z,7.36
2018-12-26T23:13:28.623Z,7.45
2018-12-26T23:16:00.579Z,7.38
2018-12-26T23:18:33.747Z,7.24
2018-12-26T23:21:07.984Z,7.07
2018-12-26T23:23:41.407Z,7.06
2018-12-26T23:26:13.426Z,6.88
2018-12-26T23:28:45.290Z,6.82
2018-12-26T23:31:17.343Z,6.81
2018-12-26T23:33:51.038Z,6.90
2018-12-26T23:36:22.912Z,6.86
2018-12-26T23:38:55.803Z,6.82
2018-12-26T23:41:32.169Z,6.85
2018-12-26T23:44:13.308Z,6.72
2018-12-26T23:46:45.907Z,6.71
2018-12-26T23:49:19.446Z,6.75
2018-12-26T23:51:51.798Z,6.65
2018-12-26T23:54:24.101Z,6.60
2018-12-26T23:56:56.000Z,6.60
2018-12-26T23:59:27.939Z,6.57
